KDNN/DNN METAR and TAF weather

Enter ICAO airport designator
Station Type Date Time Source
KDNN METAR 2020/01/23 09:15 UTC NOAA

KDNN 230915Z AUTO 00000KT 10SM CLR 05/M08 A3025 RMK AO2


Station Type Date Time Source
KDNN Decoded METAR 2020/01/23 09:15 UTC NOAA

Dalton, Dalton Municipal Airport, GA, United States (KDNN) 34-43-18N 084-52-09W
Jan 23, 2020 - 04:15 AM EST / 2020.01.23 0915 UTC
Wind: Calm:0
Visibility: 10 mile(s):0
Sky conditions: clear
Temperature: 41 F (5 C)
Dew Point: 17 F (-8 C)
Relative Humidity: 38%
Pressure (altimeter): 30.25 in. Hg (1024 hPa)
ob: KDNN 230915Z AUTO 00000KT 10SM CLR 05/M08 A3025 RMK AO2
cycle: 9

Station Type Date Time Source
KDNN TAF UTC NOAA

Error!

Example: see airport list